Time;durP1;ratioP1;P1;durP2;ratioP2;P2;SDS_P1;SDS_P2;PMS_P1;PMS_P2;Temp;Humidity;BMP_temperature;BMP_pressure;BME280_temperature;BME280_humidity;BME280_pressure;Samples;Min_cycle;Max_cycle;Signal;HPM_P1;HPM_P2
2024/03/08 00:00:27;;;;;;;36.08;19.73;;;;;;;-144.05;63.53;57029.38;5004930;28;20025;-79
2024/03/08 00:02:54;;;;;;;34.55;19.38;;;;;;;-144.05;63.75;57086.72;5010118;28;20096;-80
2024/03/08 00:05:21;;;;;;;49.58;26.25;;;;;;;-144.05;64.08;57020.88;5010496;28;20044;-80
2024/03/08 00:07:47;;;;;;;56.95;30.33;;;;;;;-144.05;63.89;57059.09;5010372;28;20376;-80
2024/03/08 00:10:21;;;;;;;36.45;21.65;;;;;;;-144.05;64.09;57054.88;5115319;27;20393;-80
2024/03/08 00:12:47;;;;;;;35.85;21.23;;;;;;;-144.05;64.12;57080.34;5077859;28;20028;-79
2024/03/08 00:15:17;;;;;;;34.45;20.35;;;2.10;99.90;;;-144.05;63.80;57078.22;5060106;28;20060;-81
2024/03/08 00:17:45;;;;;;;42.35;23.40;;;2.30;99.90;;;-144.05;64.14;57059.09;5063213;28;20064;-80
2024/03/08 00:20:11;;;;;;;39.53;22.05;;;;;;;-144.05;63.61;57044.25;5061316;28;20029;-81
2024/03/08 00:22:38;;;;;;;39.83;21.50;;;2.30;99.90;;;-144.05;63.72;57099.47;5079056;28;20059;-81
2024/03/08 00:25:09;;;;;;;37.25;20.98;;;2.30;99.90;;;-144.05;64.19;57073.97;5061203;28;20417;-79
2024/03/08 00:27:38;;;;;;;35.15;21.55;;;;;;;-144.05;64.06;57069.72;5063653;28;20036;-80
2024/03/08 00:30:05;;;;;;;45.17;25.27;;;;;;;-144.05;63.92;57063.34;5064791;28;20037;-81
2024/03/08 00:32:31;;;;;;;38.95;22.00;;;;;;;-144.05;63.97;57086.72;5079714;28;20386;-79
2024/03/08 00:34:58;;;;;;;34.28;21.23;;;;;;;-144.05;64.12;57080.34;5077572;28;20056;-81
2024/03/08 00:37:24;;;;;;;35.08;21.58;;;;;;;-144.05;63.94;57073.97;5063747;28;20033;-78
2024/03/08 00:39:52;;;;;;;38.42;21.75;;;;;;;-144.05;63.14;57078.22;5061336;28;20115;-79
2024/03/08 00:42:19;;;;;;;38.08;22.65;;;2.20;99.90;;;-144.05;63.03;57056.97;5063563;28;20510;-82
2024/03/08 00:44:47;;;;;;;40.95;22.27;;;;;;;-144.05;62.92;57069.72;5064444;28;20029;-82
2024/03/08 00:47:14;;;;;;;33.47;19.90;;;;;;;-144.05;61.75;57046.38;5061322;28;20498;-79
2024/03/08 00:49:42;;;;;;;36.90;22.67;;;1.90;99.90;;;-144.05;61.86;57073.97;5062856;28;20025;-81
2024/03/08 00:52:09;;;;;;;36.40;20.67;;;;;;;-144.05;61.40;57037.88;5064092;28;20033;-81
2024/03/08 00:54:38;;;;;;;36.35;20.60;;;;;;;-144.05;61.16;57054.88;5068880;28;20063;-81
2024/03/08 00:57:06;;;;;;;32.70;19.60;;;;;;;-144.05;60.72;57073.97;5066509;28;20111;-81
2024/03/08 00:59:32;;;;;;;40.63;22.50;;;;;;;-144.05;60.34;57061.22;5083591;28;20062;-82
2024/03/08 01:02:02;;;;;;;32.53;19.25;;;2.40;99.90;;;-144.05;59.10;57059.09;5065825;28;20029;-84
2024/03/08 01:04:29;;;;;;;34.20;19.70;;;;;;;-144.05;58.62;57042.13;5068779;28;20115;-80
2024/03/08 01:06:57;;;;;;;35.72;20.33;;;;;;;-144.05;58.67;57071.84;5062132;28;20033;-81
2024/03/08 01:09:27;;;;;;;39.28;20.58;;;;;;;-144.05;58.63;57052.75;5067097;28;20040;-83
2024/03/08 01:11:54;;;;;;;31.88;19.40;;;2.20;99.90;;;-144.05;58.45;57067.59;5085720;28;20169;-81
2024/03/08 01:14:22;;;;;;;34.72;19.60;;;2.50;99.90;;;-144.05;58.63;57071.84;5069699;28;20037;-80
2024/03/08 01:16:49;;;;;;;30.20;18.30;;;;;;;-144.05;58.04;57042.13;5062789;28;20098;-81
2024/03/08 01:19:15;;;;;;;34.65;19.45;;;;;;;-144.05;58.11;57069.72;5063758;28;20025;-81
2024/03/08 01:21:42;;;;;;;29.60;17.38;;;;;;;-144.05;57.78;57025.13;5051888;28;20142;-81
2024/03/08 01:24:08;;;;;;;34.72;19.25;;;;;;;-144.05;58.02;57052.75;5050387;28;20078;-83
2024/03/08 01:26:35;;;;;;;33.22;20.50;;;;;;;-144.05;58.54;57044.25;5061882;28;20442;-82
2024/03/08 01:29:03;;;;;;;36.40;20.23;;;2.40;99.90;;;-144.05;58.27;57069.72;5059441;28;20029;-84
2024/03/08 01:31:30;;;;;;;37.08;21.25;;;2.30;99.90;;;-144.05;58.61;57063.34;5067398;28;20084;-82
2024/03/08 01:33:58;;;;;;;42.88;22.50;;;2.20;99.90;;;-144.05;59.00;57071.84;5061513;28;20024;-83
2024/03/08 01:36:24;;;;;;;40.42;21.35;;;;;;;-144.05;59.62;57063.34;5052300;28;20421;-79
2024/03/08 01:38:51;;;;;;;34.17;20.85;;;;;;;-144.05;60.42;57035.75;5044398;28;20538;-80
2024/03/08 01:41:18;;;;;;;34.72;20.65;;;;;;;-144.05;60.38;57073.97;5033538;28;20064;-81
2024/03/08 01:43:45;;;;;;;40.20;21.67;;;;;;;-144.05;60.18;57061.22;5060323;28;20025;-81
2024/03/08 01:46:18;;;;;;;39.47;21.30;;;2.00;99.90;;;-144.05;59.93;57052.75;5034105;28;20151;-79
2024/03/08 01:48:45;;;;;;;41.72;20.55;;;1.70;99.90;;;-144.05;60.54;57067.59;5047364;28;20120;-80
2024/03/08 01:51:14;;;;;;;39.05;21.58;;;-1.30;99.90;;;-144.05;60.50;57076.09;5046708;28;20017;-80
2024/03/08 01:53:45;;;;;;;37.97;21.02;;;;;;;-144.05;59.84;57061.22;5048555;28;20047;-79
2024/03/08 01:56:13;;;;;;;37.65;21.45;;;1.90;99.90;;;-144.05;61.71;57095.22;5046650;28;20459;-79
2024/03/08 01:58:47;;;;;;;44.40;23.67;;;1.90;99.90;;;-144.05;63.54;57056.97;5047062;28;20025;-79
2024/03/08 02:01:18;;;;;;;46.20;21.77;;;;;;;-144.05;62.91;57103.72;5047251;28;20447;-80
2024/03/08 02:03:46;;;;;;;39.55;22.58;;;;;;;-144.05;62.89;57088.84;5060865;28;20043;-78
2024/03/08 02:06:14;;;;;;;38.60;23.13;;;;;;;-144.05;62.35;57056.97;5051947;28;20108;-80
2024/03/08 02:08:45;;;;;;;38.92;21.45;;;;;;;-144.05;62.09;57088.84;5048187;28;20037;-80
2024/03/08 02:11:13;;;;;;;42.88;22.58;;;;;;;-144.05;62.48;57090.97;5045411;28;20104;-79
2024/03/08 02:13:42;;;;;;;37.72;21.20;;;1.50;99.90;;;-144.05;62.11;57067.59;5037538;28;20029;-79
2024/03/08 02:16:08;;;;;;;40.30;23.20;;;;;;;-144.05;62.85;57059.09;5049159;28;20566;-80
2024/03/08 02:18:35;;;;;;;42.17;23.45;;;;;;;-144.05;62.30;57056.97;5046807;28;20542;-81
2024/03/08 02:21:06;;;;;;;41.40;23.48;;;1.40;99.90;;;-144.05;62.74;57063.34;5045478;28;20112;-81
2024/03/08 02:23:33;;;;;;;41.78;23.50;;;;;;;-144.05;63.01;57082.47;5052675;28;20517;-80
2024/03/08 02:26:00;;;;;;;41.92;22.60;;;;;;;-144.05;62.75;57065.47;5047032;28;20032;-80
2024/03/08 02:28:26;;;;;;;46.67;23.00;;;;;;;-144.05;63.40;57088.84;5047007;28;20510;-80
2024/03/08 02:30:56;;;;;;;43.03;22.92;;;;;;;-144.05;63.20;57035.75;5048403;28;20529;-80
2024/03/08 02:33:23;;;;;;;44.00;23.75;;;;;;;-144.05;63.26;57059.09;5047147;28;20151;-80
2024/03/08 02:35:53;;;;;;;38.42;23.48;;;;;;;-144.05;63.00;57082.47;5047652;28;20082;-79
2024/03/08 02:38:24;;;;;;;42.72;22.42;;;1.30;99.90;;;-144.05;63.74;57063.34;5048688;28;20105;-80
2024/03/08 02:40:53;;;;;;;43.53;23.67;;;1.30;99.90;;;-144.05;64.74;57082.47;5048819;28;20036;-79
2024/03/08 02:43:22;;;;;;;41.22;24.73;;;1.10;99.90;;;-144.05;64.52;57103.72;5047949;28;20152;-81
2024/03/08 02:45:48;;;;;;;45.65;23.00;;;-2.40;99.90;;;-144.05;65.19;57078.22;5049022;28;20013;-78
2024/03/08 02:48:16;;;;;;;50.67;25.45;;;2.10;99.90;;;-144.05;65.01;57069.72;5045448;28;20056;-79
2024/03/08 02:50:44;;;;;;;47.40;23.90;;;;;;;-144.05;65.73;57095.22;5044475;28;20029;-83
2024/03/08 02:53:13;;;;;;;40.30;22.30;;;;;;;-144.05;64.85;57031.50;5044108;28;20040;-83
2024/03/08 02:55:41;;;;;;;45.05;23.30;;;1.20;99.90;;;-144.05;64.89;57082.47;5049858;28;20028;-82
2024/03/08 02:58:10;;;;;;;41.92;23.05;;;-2.70;99.90;;;-144.05;65.43;57048.50;5047253;28;20021;-82
2024/03/08 03:00:38;;;;;;;46.85;23.52;;;;;;;-144.05;65.24;57110.09;5049085;28;20163;-81
2024/03/08 03:03:06;;;;;;;42.45;23.58;;;;;;;-144.05;65.21;57065.47;5046920;28;20052;-81
2024/03/08 03:05:32;;;;;;;47.17;24.08;;;-2.30;99.90;;;-144.05;65.39;57084.59;5050244;28;20047;-79
2024/03/08 03:07:59;;;;;;;45.47;23.85;;;;;;;-144.05;65.19;57084.59;5045830;28;20021;-79
2024/03/08 03:10:25;;;;;;;43.15;23.35;;;;;;;-144.05;65.77;57069.72;5044575;28;20033;-80
2024/03/08 03:12:52;;;;;;;45.25;24.58;;;;;;;-144.05;65.99;57093.09;5044641;28;20043;-80
2024/03/08 03:15:19;;;;;;;48.10;23.88;;;;;;;-144.05;65.69;57095.22;5047253;28;20393;-80
2024/03/08 03:17:53;;;;;;;40.78;22.63;;;1.20;99.90;;;-144.05;65.46;57056.97;5063527;28;20028;-79
2024/03/08 03:20:40;;;;;;;40.10;23.25;;;1.20;99.90;;;-144.05;66.09;57084.59;5055705;28;20018;-78
2024/03/08 03:23:08;;;;;;;45.10;24.17;;;0.70;99.90;;;-144.05;65.98;57050.63;5064036;28;20591;-79
2024/03/08 03:25:35;;;;;;;43.65;22.27;;;;;;;-144.05;65.98;57059.09;5042059;28;20481;-79
2024/03/08 03:28:04;;;;;;;45.03;25.45;;;1.20;99.90;;;-144.05;66.58;57086.72;5059212;28;20029;-80
2024/03/08 03:30:32;;;;;;;44.28;23.60;;;;;;;-144.05;67.32;57090.97;5067442;28;20025;-82
2024/03/08 03:33:06;;;;;;;49.97;24.88;;;;;;;-144.05;67.29;57073.97;5047739;28;20032;-79
2024/03/08 03:35:34;;;;;;;43.38;23.67;;;;;;;-144.05;66.65;57086.72;5043711;28;20025;-80
2024/03/08 03:38:19;;;;;;;44.25;24.40;;;;;;;-144.05;67.52;57056.97;5046647;28;20471;-80
2024/03/08 03:40:48;;;;;;;34.72;17.60;;;;;;;-144.05;66.65;57093.09;5038426;28;20017;-80
2024/03/08 03:43:14;;;;;;;45.65;23.77;;;;;;;-144.05;67.29;57059.09;5047667;28;20410;-80
2024/03/08 03:45:41;;;;;;;46.47;23.88;;;;;;;-144.05;68.05;57088.84;5048121;28;20037;-80
2024/03/08 03:48:11;;;;;;;43.50;24.85;;;1.00;99.90;;;-144.05;67.88;57078.22;5036812;28;20043;-81
2024/03/08 03:50:37;;;;;;;48.95;26.10;;;;;;;-144.05;67.96;57078.22;5058900;28;20056;-78
2024/03/08 03:53:07;;;;;;;43.00;23.52;;;;;;;-144.05;67.93;57056.97;5046667;28;20028;-78
2024/03/08 03:55:34;;;;;;;50.90;24.52;;;;;;;-144.05;67.76;57097.34;5050292;28;20131;-80
2024/03/08 03:58:01;;;;;;;50.88;25.38;;;;;;;-144.05;68.15;57071.84;5044724;28;20056;-81
2024/03/08 04:00:27;;;;;;;46.75;25.15;;;;;;;-144.05;68.23;57082.47;5033109;28;20049;-80
2024/03/08 04:02:54;;;;;;;49.35;25.83;;;;;;;-144.05;68.21;57103.72;5050082;28;20025;-79
2024/03/08 04:05:21;;;;;;;47.60;25.65;;;;;;;-144.05;67.87;57086.72;5070495;28;20033;-81
2024/03/08 04:07:47;;;;;;;47.30;24.95;;;;;;;-144.05;68.13;57090.97;5049941;28;20121;-81
2024/03/08 04:10:13;;;;;;;47.65;26.00;;;;;;;-144.05;68.00;57067.59;5045482;28;20041;-81
2024/03/08 04:12:39;;;;;;;53.38;26.42;;;;;;;-144.05;67.79;57073.97;5064072;28;20449;-80
2024/03/08 04:15:07;;;;;;;46.15;26.25;;;;;;;-144.05;67.68;57061.22;5046848;28;20025;-81
2024/03/08 04:17:37;;;;;;;48.95;25.40;;;;;;;-144.05;67.76;57090.97;5048474;28;20036;-79
2024/03/08 04:20:09;;;;;;;48.40;26.45;;;0.60;99.90;;;-144.05;68.07;57065.47;5046565;28;20048;-81
2024/03/08 04:22:37;;;;;;;45.50;24.17;;;;;;;-144.05;68.82;57073.97;5047302;28;20059;-78
2024/03/08 04:25:04;;;;;;;46.83;26.02;;;;;;;-144.05;68.57;57080.34;5052780;28;20376;-78
2024/03/08 04:27:32;;;;;;;49.65;26.88;;;;;;;-144.05;68.09;57063.34;5063818;28;20505;-78
2024/03/08 04:29:59;;;;;;;53.15;26.38;;;;;;;-144.05;68.67;57107.97;5063154;28;20030;-79
2024/03/08 04:32:25;;;;;;;49.58;25.88;;;;;;;-144.05;68.48;57050.63;5046839;28;20029;-78
2024/03/08 04:34:51;;;;;;;51.53;26.00;;;;;;;-144.05;69.03;57044.25;5047342;28;20101;-80
2024/03/08 04:37:23;;;;;;;49.08;26.52;;;;;;;-144.05;68.34;57103.72;5047369;28;20089;-81
2024/03/08 04:39:50;;;;;;;46.63;25.30;;;;;;;-144.05;68.88;57046.38;5049296;28;20021;-79
2024/03/08 04:42:17;;;;;;;50.10;25.70;;;;;;;-144.05;68.52;57071.84;5063042;28;20471;-81
2024/03/08 04:44:44;;;;;;;95.05;40.95;;;;;;;-144.05;68.52;57059.09;5048947;28;20032;-81
2024/03/08 04:47:10;;;;;;;46.22;24.42;;;;;;;-144.05;69.07;57076.09;5046040;28;20452;-80
2024/03/08 04:49:37;;;;;;;47.03;25.73;;;;;;;-144.05;69.43;57071.84;5048319;28;20401;-81
2024/03/08 04:52:04;;;;;;;46.10;25.00;;;;;;;-144.05;68.71;57080.34;5047335;28;20399;-76
2024/03/08 04:54:31;;;;;;;52.25;26.10;;;;;;;-144.05;68.69;57093.09;5048644;28;20028;-80
2024/03/08 04:56:59;;;;;;;48.83;26.10;;;;;;;-144.05;68.71;57078.22;5050401;28;20120;-79
2024/03/08 04:59:27;;;;;;;47.53;25.75;;;;;;;-144.05;68.61;57071.84;5052028;28;20044;-80
2024/03/08 05:01:53;;;;;;;47.33;25.85;;;;;;;-144.05;68.50;57097.34;5050966;28;20039;-81
2024/03/08 05:04:19;;;;;;;50.97;25.75;;;;;;;-144.05;69.26;57078.22;5043649;28;20033;-81
2024/03/08 05:06:45;;;;;;;49.45;26.80;;;;;;;-144.05;69.99;57086.72;5050986;28;20504;-79
2024/03/08 05:09:15;;;;;;;45.95;25.00;;;;;;;-144.05;69.76;57084.59;5051160;28;20037;-82
2024/03/08 05:11:43;;;;;;;48.22;25.95;;;;;;;-144.05;69.56;57052.75;5051422;28;20029;-81
2024/03/08 05:14:10;;;;;;;51.22;26.15;;;;;;;-144.05;69.45;57069.72;5051824;28;20501;-83
2024/03/08 05:16:36;;;;;;;50.50;29.02;;;;;;;-144.05;70.56;57084.59;5052686;28;20394;-79
2024/03/08 05:19:03;;;;;;;46.92;25.85;;;0.40;99.90;;;-144.05;70.88;57048.50;5051379;28;20028;-79
2024/03/08 05:21:29;;;;;;;53.88;27.90;;;;;;;-144.05;70.02;57080.34;5053786;28;20426;-76
2024/03/08 05:23:55;;;;;;;53.88;26.65;;;;;;;-144.05;69.63;57052.75;5054230;28;20060;-78
2024/03/08 05:26:24;;;;;;;50.40;25.42;;;;;;;-144.05;69.86;57082.47;5047964;28;20025;-78
2024/03/08 05:28:50;;;;;;;51.72;26.48;;;;;;;-144.05;70.52;57065.47;5055597;28;20032;-79
2024/03/08 05:31:23;;;;;;;49.40;26.65;;;;;;;-144.05;71.28;57071.84;5044968;28;20060;-77
2024/03/08 05:33:50;;;;;;;58.85;28.17;;;;;;;-144.05;70.60;57088.84;5050740;28;20510;-79
2024/03/08 05:36:16;;;;;;;58.95;26.58;;;;;;;-144.05;71.24;57052.75;5054492;28;20033;-81
2024/03/08 05:38:43;;;;;;;59.22;26.95;;;0.40;99.90;;;-144.05;70.28;57093.09;5054998;28;20024;-80
2024/03/08 05:41:11;;;;;;;53.00;26.83;;;;;;;-144.05;70.31;57088.84;5052492;28;20044;-81
2024/03/08 05:43:40;;;;;;;57.45;29.15;;;;;;;-144.05;70.57;57078.22;5053996;28;20033;-81
2024/03/08 05:46:06;;;;;;;56.03;28.50;;;;;;;-144.05;70.25;57071.84;5053495;28;20033;-81
2024/03/08 05:48:32;;;;;;;68.20;31.23;;;;;;;-144.05;70.68;57063.34;5054329;28;20029;-80
2024/03/08 05:51:02;;;;;;;56.22;28.58;;;;;;;-144.05;70.33;57082.47;5040089;28;20087;-78
2024/03/08 05:53:32;;;;;;;56.00;27.80;;;;;;;-144.05;71.02;57056.97;5051659;28;20041;-79
2024/03/08 05:55:59;;;;;;;51.53;26.33;;;;;;;-144.05;70.61;57084.59;5044772;28;20032;-79
2024/03/08 05:58:25;;;;;;;51.70;27.35;;;;;;;-144.05;71.13;57095.22;5051537;28;20022;-79
2024/03/08 06:00:51;;;;;;;53.22;27.80;;;;;;;-144.05;71.25;57084.59;5045314;28;20056;-80
2024/03/08 06:03:21;;;;;;;51.35;26.80;;;;;;;-144.05;71.50;57095.22;5058038;28;20113;-80
2024/03/08 06:05:50;;;;;;;54.60;27.17;;;;;;;-144.05;70.73;57054.88;5052566;28;20160;-77
2024/03/08 06:08:18;;;;;;;58.03;27.67;;;;;;;-144.05;70.22;57084.59;5037862;28;20045;-78
2024/03/08 06:10:45;;;;;;;54.78;29.45;;;;;;;-144.05;70.71;57048.50;5051317;28;20029;-80
2024/03/08 06:13:12;;;;;;;58.38;28.58;;;;;;;-144.05;70.59;57078.22;5073764;28;20437;-79
2024/03/08 06:15:38;;;;;;;55.72;28.63;;;;;;;-144.05;69.92;57099.47;5045602;28;20095;-78
2024/03/08 06:18:05;;;;;;;58.85;27.48;;;;;;;-144.05;70.05;57061.22;5046476;28;20029;-80
2024/03/08 06:20:32;;;;;;;51.80;26.63;;;;;;;-144.05;70.35;57086.72;5058543;28;20035;-78
2024/03/08 06:22:58;;;;;;;53.13;27.38;;;;;;;-144.05;69.73;57063.34;5067327;28;20029;-76
2024/03/08 06:25:25;;;;;;;59.35;28.08;;;;;;;-144.05;69.63;57073.97;5058947;28;20029;-81
2024/03/08 06:27:53;;;;;;;53.17;27.77;;;;;;;-144.05;69.60;57046.38;5047582;28;20025;-78
2024/03/08 06:30:20;;;;;;;50.10;26.70;;;;;;;-144.05;69.60;57076.09;5040954;28;20137;-78
2024/03/08 06:32:46;;;;;;;50.40;26.85;;;;;;;-144.05;69.58;57050.63;5057954;28;20124;-80
2024/03/08 06:35:12;;;;;;;53.42;27.70;;;;;;;-144.05;69.52;57071.84;5055991;28;20032;-80
2024/03/08 06:37:38;;;;;;;57.75;28.95;;;;;;;-144.05;69.28;57044.25;5059376;28;20025;-78
2024/03/08 06:40:08;;;;;;;57.25;28.88;;;;;;;-144.05;68.39;57046.38;5058526;28;20025;-77
2024/03/08 06:42:35;;;;;;;48.97;26.10;;;;;;;-144.05;68.64;57093.09;5056284;28;20036;-79
2024/03/08 06:45:05;;;;;;;50.78;27.75;;;-3.40;99.90;;;-144.05;68.08;57063.34;5058011;28;20488;-76
2024/03/08 06:47:31;;;;;;;54.60;27.08;;;;;;;-144.05;68.15;57082.47;5042489;28;20036;-76
2024/03/08 06:49:58;;;;;;;49.50;26.98;;;1.00;99.90;;;-144.05;67.00;57084.59;5074556;28;20458;-78
2024/03/08 06:52:24;;;;;;;48.45;26.10;;;;;;;-144.05;67.03;57056.97;5050931;28;20056;-77
2024/03/08 06:54:52;;;;;;;53.97;26.30;;;;;;;-144.05;66.32;57069.72;5050432;28;20033;-79
2024/03/08 06:57:21;;;;;;;50.97;26.98;;;;;;;-144.05;66.70;57048.50;5071111;28;20072;-75
2024/03/08 06:59:48;;;;;;;46.55;25.40;;;;;;;-144.05;66.07;57069.72;5069559;28;20029;-79
2024/03/08 07:02:15;;;;;;;49.25;25.25;;;;;;;-144.05;66.03;57048.50;5058837;28;20032;-78
2024/03/08 07:04:41;;;;;;;49.35;26.15;;;;;;;-144.05;65.22;57044.25;5059051;28;20052;-78
2024/03/08 07:07:09;;;;;;;47.42;25.45;;;-1.70;99.90;;;-144.05;64.79;57023.00;5059092;28;20024;-78
2024/03/08 07:09:37;;;;;;;44.88;24.65;;;2.00;99.90;;;-144.05;63.92;57018.75;5057138;28;20040;-81
2024/03/08 07:12:04;;;;;;;46.58;23.73;;;;;;;-144.05;62.57;57050.63;5059185;28;20024;-77
2024/03/08 07:14:33;;;;;;;43.72;22.98;;;;;;;-144.05;60.89;57023.00;5059740;28;20033;-78
2024/03/08 07:16:59;;;;;;;45.75;24.10;;;-1.40;99.90;;;-144.05;60.30;57020.88;5050251;28;20021;-79
2024/03/08 07:19:26;;;;;;;41.83;22.38;;;;;;;-144.05;60.84;57020.88;5046881;28;20200;-79
2024/03/08 07:21:51;;;;;;;38.97;22.48;;;-1.10;99.90;;;-144.05;60.66;57067.59;5041153;28;20025;-78
2024/03/08 07:26:44;;;;;;;45.00;23.38;;;-1.20;99.90;;;-144.05;59.84;57023.00;5075815;28;20037;-78
2024/03/08 07:29:10;;;;;;;42.58;23.58;;;-0.50;99.90;;;-144.05;59.41;57033.63;5050995;28;20121;-79
2024/03/08 07:34:08;;;;;;;41.30;23.45;;;;;;;-144.05;59.24;57023.00;5040032;28;20037;-78
2024/03/08 07:36:35;;;;;;;47.42;23.27;;;0.00;99.90;;;-144.05;59.41;57027.25;5037622;28;20547;-78
2024/03/08 07:39:01;;;;;;;39.85;23.33;;;3.40;99.90;;;-144.05;58.56;57031.50;5047596;28;20030;-79
2024/03/08 07:41:30;;;;;;;40.42;22.60;;;;;;;-144.05;58.10;57027.25;5051400;28;20029;-78
2024/03/08 07:44:07;;;;;;;43.92;23.35;;;3.60;99.90;;;-144.05;58.14;57048.50;5052836;28;20116;-78
2024/03/08 07:46:34;;;;;;;42.78;22.35;;;;;;;-144.05;58.09;57001.75;5051469;28;20060;-80
2024/03/08 07:49:00;;;;;;;39.42;22.90;;;;;;;-144.05;57.60;57018.75;5047883;28;20033;-80
2024/03/08 07:51:34;;;;;;;46.78;24.13;;;4.00;99.90;;;-144.05;57.23;57018.75;5038949;28;20022;-79
2024/03/08 07:54:00;;;;;;;37.50;21.63;;;;;;;-144.05;56.47;56995.38;5039391;28;20045;-76
2024/03/08 07:56:27;;;;;;;39.47;22.95;;;;;;;-144.05;55.94;57014.50;5047805;28;20030;-78
2024/03/08 07:58:53;;;;;;;41.95;21.90;;;;;;;-144.05;55.48;57006.00;5039430;28;20021;-79
2024/03/08 08:01:20;;;;;;;42.30;24.52;;;4.80;99.90;;;-144.05;55.03;57003.88;5038135;28;20085;-78
2024/03/08 08:03:48;;;;;;;40.63;22.10;;;2.60;99.90;;;-144.05;54.54;57012.38;5038739;28;20048;-79
2024/03/08 08:06:15;;;;;;;39.22;22.75;;;4.90;99.90;;;-144.05;54.07;57025.13;5038460;28;20030;-78
2024/03/08 08:08:44;;;;;;;40.47;23.48;;;5.10;99.90;;;-144.05;53.22;57014.50;5037171;28;20041;-78
2024/03/08 08:11:15;;;;;;;41.05;21.70;;;5.10;99.90;;;-144.05;53.34;56993.25;5045055;28;20056;-80
2024/03/08 08:13:43;;;;;;;43.35;24.38;;;1.60;99.90;;;-144.05;53.84;57008.13;5037711;28;20025;-80
2024/03/08 08:16:10;;;;;;;40.60;23.90;;;1.80;99.90;;;-144.05;53.53;56989.00;5040465;28;20108;-77
2024/03/08 08:18:36;;;;;;;42.03;22.70;;;2.00;99.90;;;-144.05;53.49;56995.38;5039438;28;20021;-77
2024/03/08 08:21:05;;;;;;;46.28;22.48;;;4.90;99.90;;;-144.05;53.46;57023.00;5039510;28;20029;-77
2024/03/08 08:23:32;;;;;;;36.88;22.08;;;;;;;-144.05;54.66;57001.75;5038310;28;20021;-78
2024/03/08 08:25:59;;;;;;;36.60;21.77;;;1.20;99.90;;;-144.05;53.90;57012.38;5039179;28;20036;-78
2024/03/08 08:28:25;;;;;;;38.28;22.17;;;;;;;-144.05;53.71;57029.38;5038883;28;20458;-78
2024/03/08 08:30:52;;;;;;;43.33;22.77;;;;;;;-144.05;53.42;57050.63;5039358;28;20034;-77
2024/03/08 08:33:18;;;;;;;39.85;22.27;;;;;;;-144.05;52.02;57012.38;5050106;28;20029;-78
2024/03/08 08:35:44;;;;;;;38.40;23.02;;;1.90;99.90;;;-144.05;52.61;57018.75;5043683;28;20414;-78
2024/03/08 08:38:10;;;;;;;38.28;22.85;;;;;;;-144.05;51.90;57001.75;5043307;28;20041;-77
2024/03/08 08:40:36;;;;;;;39.45;22.48;;;;;;;-144.05;52.43;57016.63;5041715;28;20175;-78
2024/03/08 08:43:06;;;;;;;43.97;23.50;;;5.70;99.90;;;-144.05;52.59;56997.50;5042306;28;20105;-78
2024/03/08 08:45:33;;;;;;;36.40;20.75;;;;;;;-144.05;52.54;57008.13;5040294;28;20033;-77
2024/03/08 08:47:59;;;;;;;40.90;22.77;;;;;;;-144.05;53.14;57027.25;5040952;28;20049;-77
2024/03/08 08:50:28;;;;;;;39.88;23.05;;;2.00;99.90;;;-144.05;53.17;57033.63;5042509;28;20120;-79
2024/03/08 08:52:54;;;;;;;38.38;21.67;;;3.30;99.90;;;-144.05;51.78;57006.00;5041280;28;20029;-77
2024/03/08 08:55:25;;;;;;;37.33;21.55;;;3.70;99.90;;;-144.05;51.03;57012.38;5040457;28;20087;-76
2024/03/08 08:57:52;;;;;;;39.25;21.25;;;6.90;99.90;;;-144.05;51.10;56997.50;5042038;28;20021;-77
2024/03/08 09:00:23;;;;;;;36.85;21.92;;;6.10;99.90;;;-144.05;51.86;56976.28;5050965;28;20029;-77
2024/03/08 09:02:51;;;;;;;36.63;21.02;;;3.90;99.90;;;-144.05;50.58;56984.78;5042611;28;20031;-78
2024/03/08 09:05:17;;;;;;;34.85;21.75;;;3.80;99.90;;;-144.05;50.91;56997.50;5041343;28;20455;-78
2024/03/08 09:07:46;;;;;;;36.33;20.77;;;4.30;99.90;;;-144.05;49.79;57001.75;5042427;28;20108;-79
2024/03/08 09:10:14;;;;;;;41.13;21.45;;;4.10;99.90;;;-144.05;50.01;57016.63;5042055;28;20163;-80
2024/03/08 09:12:41;;;;;;;37.17;21.58;;;;;;;-144.05;50.43;56993.25;5040974;28;20056;-80
2024/03/08 09:15:11;;;;;;;36.45;21.10;;;6.80;99.90;;;-144.05;50.04;56963.53;5041278;28;20083;-78
2024/03/08 09:17:40;;;;;;;36.42;21.17;;;4.70;99.90;;;-144.05;48.56;56999.63;5040412;28;20021;-78
2024/03/08 09:20:08;;;;;;;39.97;22.13;;;6.80;99.90;;;-144.05;49.14;56991.13;5042293;28;20022;-79
2024/03/08 09:22:35;;;;;;;36.72;21.65;;;6.60;99.90;;;-144.05;49.52;56989.00;5047687;28;20021;-80
2024/03/08 09:25:01;;;;;;;35.28;20.30;;;;;;;-144.05;48.52;56986.91;5040184;28;20056;-79
2024/03/08 09:27:28;;;;;;;35.97;21.92;;;8.20;99.90;;;-144.05;47.76;56972.03;5043108;28;20032;-78
2024/03/08 09:29:54;;;;;;;40.53;22.67;;;6.80;99.90;;;-144.05;47.69;56976.28;5042411;28;20026;-78
2024/03/08 09:32:22;;;;;;;37.90;22.20;;;7.40;99.90;;;-144.05;47.34;56986.91;5043609;28;20036;-79
2024/03/08 09:34:48;;;;;;;34.67;21.67;;;8.00;99.90;;;-144.05;47.74;56991.13;5043249;28;20105;-78
2024/03/08 09:37:14;;;;;;;34.95;20.42;;;;;;;-144.05;46.88;56976.28;5042352;28;20030;-79
2024/03/08 09:39:40;;;;;;;34.05;20.02;;;8.70;99.90;;;-144.05;46.70;56963.53;5042206;28;20033;-79
2024/03/08 09:42:07;;;;;;;34.47;21.10;;;;;;;-144.05;47.34;56993.25;5042510;28;20028;-77
2024/03/08 09:44:34;;;;;;;36.38;21.02;;;7.50;99.90;;;-144.05;46.85;56982.66;5042296;28;20025;-77
2024/03/08 09:47:02;;;;;;;34.05;21.25;;;6.60;99.90;;;-144.05;47.93;56986.91;5058194;28;20041;-76
2024/03/08 09:49:29;;;;;;;36.72;21.05;;;;;;;-144.05;47.60;56999.63;5048238;28;20033;-78
2024/03/08 09:51:55;;;;;;;34.15;21.05;;;;;;;-144.05;48.52;56993.25;5040190;28;20441;-77
2024/03/08 09:54:24;;;;;;;35.10;21.85;;;;;;;-144.05;48.16;56989.00;5041495;28;20104;-77
2024/03/08 09:56:52;;;;;;;35.50;21.15;;;7.50;99.90;;;-144.05;47.69;56980.53;5041918;28;20121;-78
2024/03/08 10:01:51;;;;;;;36.92;20.98;;;7.20;99.90;;;-144.05;47.49;56978.41;5043374;28;20140;-77
2024/03/08 10:04:17;;;;;;;36.88;20.77;;;7.50;99.90;;;-144.05;47.70;56991.13;5042868;28;20113;-77
2024/03/08 10:06:43;;;;;;;35.08;19.55;;;7.00;99.90;;;-144.05;47.16;57029.38;5040773;28;20022;-77
2024/03/08 10:09:10;;;;;;;32.30;20.67;;;;;;;-144.05;47.28;56982.66;5055260;28;20049;-77
2024/03/08 10:11:36;;;;;;;36.42;21.90;;;6.70;99.90;;;-144.05;46.72;56982.66;5038801;28;20026;-77
2024/03/08 10:14:02;;;;;;;30.90;20.42;;;;;;;-144.05;46.14;56969.91;5041395;28;20036;-77
2024/03/08 10:16:28;;;;;;;33.38;21.13;;;5.30;99.90;;;-144.05;46.23;56963.53;5039197;28;20443;-78
2024/03/08 10:18:57;;;;;;;37.53;21.05;;;7.60;99.90;;;-144.05;46.37;56999.63;5043160;28;20033;-78
2024/03/08 10:21:23;;;;;;;30.20;19.23;;;7.00;99.90;;;-144.05;45.84;56976.28;5040584;28;20026;-78
2024/03/08 10:23:49;;;;;;;35.90;20.90;;;;;;;-144.05;46.40;56982.66;5039711;28;20025;-79
2024/03/08 10:26:18;;;;;;;33.95;20.05;;;6.80;99.90;;;-144.05;45.82;56989.00;5038448;28;20064;-77
2024/03/08 10:28:49;;;;;;;39.40;21.23;;;8.30;99.90;;;-144.05;46.83;56974.16;5039958;28;20029;-76
2024/03/08 10:31:17;;;;;;;34.38;21.20;;;10.30;99.90;;;-144.05;46.26;56984.78;5041433;28;20045;-78
2024/03/08 10:33:44;;;;;;;37.78;22.30;;;6.90;99.90;;;-144.05;44.90;56967.78;5055919;28;20042;-77
2024/03/08 10:36:13;;;;;;;35.85;21.58;;;6.90;99.90;;;-144.05;45.18;56976.28;5039404;28;20049;-78
2024/03/08 10:38:42;;;;;;;39.17;21.85;;;10.40;99.90;;;-144.05;44.89;56944.41;5036108;28;20095;-79
2024/03/08 10:41:11;;;;;;;34.22;20.23;;;7.20;99.90;;;-144.05;45.06;56959.28;5053320;28;20075;-77
2024/03/08 10:44:24;;;;;;;30.90;20.52;;;8.80;99.90;;;-144.05;45.26;56959.28;5032240;28;20022;-78
2024/03/08 10:47:13;;;;;;;35.30;20.02;;;7.60;99.90;;;-144.05;45.00;56978.41;5044771;28;20123;-78